createdAt,value
2018-12-25T00:01:09.885Z,2.20
2018-12-25T00:03:58.386Z,2.00
2018-12-25T00:06:47.853Z,2.30
2018-12-25T00:09:36.319Z,2.33
2018-12-25T00:12:24.484Z,2.03
2018-12-25T00:15:12.788Z,2.27
2018-12-25T00:18:01.818Z,2.07
2018-12-25T00:20:50.625Z,1.90
2018-12-25T00:23:38.356Z,2.20
2018-12-25T00:26:26.054Z,1.60
2018-12-25T00:29:13.554Z,2.20
2018-12-25T00:32:01.963Z,1.90
2018-12-25T00:34:49.517Z,1.97
2018-12-25T00:37:37.683Z,2.20
2018-12-25T00:40:25.837Z,2.10
2018-12-25T00:43:13.575Z,2.10
2018-12-25T00:46:01.262Z,1.97
2018-12-25T00:48:48.850Z,1.80
2018-12-25T00:51:36.960Z,1.93
2018-12-25T00:54:25.837Z,2.13
2018-12-25T00:57:13.822Z,1.93
2018-12-25T01:00:02.021Z,2.00
2018-12-25T01:02:49.868Z,1.90
2018-12-25T01:05:37.913Z,1.83
2018-12-25T01:08:25.536Z,2.33
2018-12-25T01:11:13.433Z,2.10
2018-12-25T01:14:01.495Z,1.80
2018-12-25T01:16:50.741Z,2.40
2018-12-25T01:19:39.456Z,2.10
2018-12-25T01:22:27.267Z,2.20
2018-12-25T01:25:58.198Z,2.20
2018-12-25T01:28:45.814Z,1.80
2018-12-25T01:31:33.577Z,2.20
2018-12-25T01:34:21.654Z,1.93
2018-12-25T01:37:08.985Z,2.20
2018-12-25T01:39:56.149Z,2.30
2018-12-25T01:42:43.913Z,2.50
2018-12-25T01:45:31.499Z,2.20
2018-12-25T01:48:19.335Z,2.47
2018-12-25T01:51:07.236Z,2.33
2018-12-25T01:53:56.148Z,2.30
2018-12-25T01:56:44.204Z,2.47
2018-12-25T01:59:32.073Z,2.40
2018-12-25T02:02:19.853Z,2.10
2018-12-25T02:05:13.082Z,2.23
2018-12-25T02:08:00.774Z,1.97
2018-12-25T02:10:49.719Z,2.23
2018-12-25T02:13:37.538Z,2.10
2018-12-25T02:16:26.262Z,2.23
2018-12-25T02:19:14.153Z,2.63
2018-12-25T02:22:30.666Z,2.83
2018-12-25T02:25:17.672Z,2.47
2018-12-25T02:28:05.436Z,2.50
2018-12-25T02:30:53.516Z,2.50
2018-12-25T02:33:40.882Z,2.30
2018-12-25T02:36:28.108Z,2.10
2018-12-25T02:39:17.025Z,2.20
2018-12-25T02:42:05.334Z,2.40
2018-12-25T02:44:53.181Z,2.37
2018-12-25T02:47:41.017Z,2.30
2018-12-25T02:50:29.406Z,2.30
2018-12-25T02:53:17.446Z,2.27
2018-12-25T02:56:04.483Z,2.47
2018-12-25T02:58:51.874Z,2.60
2018-12-25T03:01:39.784Z,2.27
2018-12-25T03:04:28.078Z,2.10
2018-12-25T03:07:15.741Z,1.93
2018-12-25T03:10:04.181Z,2.27
2018-12-25T03:12:51.903Z,2.07
2018-12-25T03:15:39.592Z,2.03
2018-12-25T03:18:27.303Z,2.47
2018-12-25T03:21:15.282Z,2.00
2018-12-25T03:24:03.190Z,2.20
2018-12-25T03:26:51.808Z,2.20
2018-12-25T03:29:39.663Z,2.03
2018-12-25T03:32:31.957Z,1.97
2018-12-25T03:35:19.355Z,1.90
2018-12-25T03:38:06.564Z,1.90
2018-12-25T03:40:54.487Z,2.10
2018-12-25T03:43:41.631Z,2.10
2018-12-25T03:46:29.593Z,2.13
2018-12-25T03:49:17.387Z,2.27
2018-12-25T03:52:05.268Z,1.90
2018-12-25T03:54:54.271Z,1.87
2018-12-25T03:57:48.590Z,1.87
2018-12-25T04:00:36.406Z,1.90
2018-12-25T04:03:25.203Z,1.83
2018-12-25T04:06:13.195Z,1.93
2018-12-25T04:09:01.069Z,1.60
2018-12-25T04:11:48.598Z,1.90
2018-12-25T04:14:35.932Z,1.90
2018-12-25T04:17:24.768Z,1.70
2018-12-25T04:20:19.687Z,1.93
2018-12-25T04:23:02.522Z,1.73
2018-12-25T04:25:50.558Z,2.20
2018-12-25T04:28:38.128Z,1.70
2018-12-25T04:31:26.280Z,1.80
2018-12-25T04:34:13.899Z,1.90
2018-12-25T04:37:01.575Z,2.20
2018-12-25T04:39:50.741Z,1.93
2018-12-25T04:42:41.320Z,2.03
2018-12-25T04:45:29.208Z,1.67
2018-12-25T04:48:21.768Z,2.03
2018-12-25T04:51:09.436Z,1.70
2018-12-25T04:53:57.395Z,2.10
2018-12-25T04:56:45.003Z,1.93
2018-12-25T04:59:34.908Z,1.63
2018-12-25T05:02:22.971Z,1.67
2018-12-25T05:05:10.844Z,1.90
2018-12-25T05:07:58.490Z,1.70
2018-12-25T05:10:46.692Z,1.90
2018-12-25T05:13:34.473Z,1.60
2018-12-25T05:16:25.892Z,1.90
2018-12-25T05:19:13.313Z,1.70
2018-12-25T05:22:01.201Z,1.70
2018-12-25T05:24:48.856Z,1.67
2018-12-25T05:27:36.472Z,1.50
2018-12-25T05:30:24.285Z,1.40
2018-12-25T05:33:12.657Z,1.60
2018-12-25T05:36:00.298Z,1.37
2018-12-25T05:38:55.392Z,1.43
2018-12-25T05:41:43.963Z,1.40
2018-12-25T05:44:31.168Z,1.40
2018-12-25T05:47:18.522Z,1.20
2018-12-25T05:50:06.275Z,1.40
2018-12-25T05:52:55.586Z,1.40
2018-12-25T05:55:43.074Z,1.47
2018-12-25T05:58:30.636Z,1.30
2018-12-25T06:01:18.020Z,1.20
2018-12-25T06:04:06.753Z,1.30
2018-12-25T06:06:54.618Z,1.37
2018-12-25T06:09:43.742Z,1.43
2018-12-25T06:12:31.560Z,1.03
2018-12-25T06:15:19.482Z,1.30
2018-12-25T06:18:07.217Z,1.30
2018-12-25T06:20:55.166Z,1.37
2018-12-25T06:23:42.856Z,1.20
2018-12-25T06:26:31.619Z,1.10
2018-12-25T06:29:19.113Z,1.10
2018-12-25T06:32:07.133Z,1.30
2018-12-25T06:34:54.731Z,1.17
2018-12-25T06:37:42.292Z,1.17
2018-12-25T06:40:30.257Z,1.20
2018-12-25T06:43:19.091Z,1.00
2018-12-25T06:46:06.873Z,1.07
2018-12-25T06:48:54.810Z,1.00
2018-12-25T06:51:42.519Z,1.07
2018-12-25T06:54:30.570Z,0.90
2018-12-25T06:57:17.806Z,1.20
2018-12-25T07:00:07.084Z,1.07
2018-12-25T07:02:54.231Z,1.00
2018-12-25T07:05:41.489Z,1.20
2018-12-25T07:08:29.623Z,1.07
2018-12-25T07:11:17.533Z,1.10
2018-12-25T07:14:05.229Z,0.90
2018-12-25T07:16:53.118Z,0.90
2018-12-25T07:19:41.321Z,0.90
2018-12-25T07:22:29.179Z,0.90
2018-12-25T07:25:18.155Z,0.87
2018-12-25T07:28:07.665Z,1.00
2018-12-25T07:30:55.669Z,1.00
2018-12-25T07:33:43.892Z,1.07
2018-12-25T07:36:33.806Z,1.00
2018-12-25T07:39:22.156Z,0.90
2018-12-25T07:42:09.748Z,1.00
2018-12-25T07:44:59.719Z,1.07
2018-12-25T07:47:47.676Z,1.00
2018-12-25T07:50:35.318Z,0.80
2018-12-25T07:53:22.878Z,0.70
2018-12-25T07:56:11.398Z,1.10
2018-12-25T07:58:58.556Z,0.90
2018-12-25T08:01:46.222Z,1.00
2018-12-25T08:04:33.729Z,0.90
2018-12-25T08:07:22.273Z,0.90
2018-12-25T08:10:09.865Z,0.90
2018-12-25T08:12:58.429Z,0.80
2018-12-25T08:15:46.261Z,0.90
2018-12-25T08:18:34.176Z,0.90
2018-12-25T08:21:29.233Z,0.90
2018-12-25T08:24:10.970Z,0.70
2018-12-25T08:26:58.849Z,0.70
2018-12-25T08:29:46.494Z,0.80
2018-12-25T08:32:34.019Z,0.80
2018-12-25T08:35:21.908Z,0.80
2018-12-25T08:38:09.930Z,1.00
2018-12-25T08:40:57.899Z,1.00
2018-12-25T08:43:45.553Z,0.60
2018-12-25T08:46:32.767Z,0.90
2018-12-25T08:49:20.414Z,0.80
2018-12-25T08:52:09.151Z,0.70
2018-12-25T08:54:57.137Z,0.90
2018-12-25T08:57:44.320Z,0.80
2018-12-25T09:00:32.290Z,0.73
2018-12-25T09:03:19.612Z,0.70
2018-12-25T09:06:07.236Z,0.80
2018-12-25T09:08:54.524Z,0.70
2018-12-25T09:11:42.054Z,0.60
2018-12-25T09:14:32.181Z,0.60
2018-12-25T09:17:19.311Z,0.67
2018-12-25T09:20:06.758Z,0.70
2018-12-25T09:22:54.311Z,0.70
2018-12-25T09:25:42.016Z,0.70
2018-12-25T09:28:29.956Z,0.40
2018-12-25T09:31:17.283Z,0.60
2018-12-25T09:34:04.835Z,0.50
2018-12-25T09:36:54.543Z,0.60
2018-12-25T09:39:42.229Z,0.40
2018-12-25T09:42:29.418Z,0.50
2018-12-25T09:45:16.841Z,0.50
2018-12-25T09:48:03.833Z,0.80
2018-12-25T09:50:51.528Z,0.70
2018-12-25T09:53:38.810Z,0.63
2018-12-25T09:56:26.818Z,0.57
2018-12-25T09:59:14.300Z,0.50
2018-12-25T10:02:02.110Z,0.60
2018-12-25T10:04:49.832Z,0.60
2018-12-25T10:07:37.402Z,0.40
2018-12-25T10:10:24.945Z,0.50
2018-12-25T10:13:12.788Z,0.47
2018-12-25T10:16:00.742Z,0.40
2018-12-25T10:18:48.424Z,0.40
2018-12-25T10:21:35.976Z,0.50
2018-12-25T10:24:23.438Z,0.40
2018-12-25T10:27:11.055Z,0.60
2018-12-25T10:29:58.454Z,0.60
2018-12-25T10:32:47.383Z,0.60
2018-12-25T10:35:34.794Z,0.40
2018-12-25T10:38:22.188Z,0.53
2018-12-25T10:41:09.328Z,0.50
2018-12-25T10:43:57.120Z,0.40
2018-12-25T10:46:45.816Z,0.40
2018-12-25T10:49:33.573Z,0.50
2018-12-25T10:52:21.358Z,0.60
2018-12-25T10:55:08.925Z,0.30
2018-12-25T10:57:56.819Z,0.63
2018-12-25T11:00:49.359Z,0.50
2018-12-25T11:03:38.217Z,0.40
2018-12-25T11:06:25.631Z,0.47
2018-12-25T11:09:14.051Z,0.60
2018-12-25T11:12:01.367Z,0.50
2018-12-25T11:14:48.864Z,0.53
2018-12-25T11:17:36.602Z,0.40
2018-12-25T11:20:24.528Z,0.57
2018-12-25T11:23:12.276Z,0.53
2018-12-25T11:25:59.707Z,0.50
2018-12-25T11:28:47.367Z,0.60
2018-12-25T11:31:35.203Z,0.80
2018-12-25T11:34:22.861Z,0.63
2018-12-25T11:37:10.852Z,0.50
2018-12-25T11:39:58.699Z,0.50
2018-12-25T11:42:45.885Z,0.53
2018-12-25T11:45:33.839Z,0.50
2018-12-25T11:48:21.735Z,0.60
2018-12-25T11:51:09.248Z,0.63
2018-12-25T11:53:57.132Z,0.50
2018-12-25T11:56:44.552Z,0.70
2018-12-25T11:59:31.868Z,0.50
2018-12-25T12:02:19.411Z,0.50
2018-12-25T12:05:06.506Z,0.70
2018-12-25T12:07:53.828Z,0.70
2018-12-25T12:10:41.518Z,0.50
2018-12-25T12:13:29.018Z,0.70
2018-12-25T12:16:16.613Z,0.60
2018-12-25T12:19:03.761Z,0.53
2018-12-25T12:21:51.152Z,0.70
2018-12-25T12:24:38.669Z,0.70
2018-12-25T12:27:26.679Z,1.00
2018-12-25T12:30:14.048Z,0.90
2018-12-25T12:33:01.940Z,0.90
2018-12-25T12:35:49.661Z,0.90
2018-12-25T12:38:37.549Z,0.63
2018-12-25T12:41:25.455Z,0.50
2018-12-25T12:44:12.984Z,0.57
2018-12-25T12:47:03.876Z,0.60
2018-12-25T12:49:51.614Z,0.47
2018-12-25T12:52:45.521Z,0.40
2018-12-25T12:55:29.683Z,0.37
2018-12-25T12:58:17.099Z,0.50
2018-12-25T13:01:04.845Z,0.40
2018-12-25T13:03:52.581Z,0.50
2018-12-25T13:06:40.396Z,0.37
2018-12-25T13:09:28.306Z,0.40
2018-12-25T13:12:15.750Z,0.23
2018-12-25T13:15:02.810Z,0.37
2018-12-25T13:17:50.587Z,3.73
2018-12-25T13:20:38.070Z,0.40
2018-12-25T13:23:25.354Z,0.40
2018-12-25T13:26:12.878Z,0.40
2018-12-25T13:29:00.390Z,0.40
2018-12-25T13:31:48.153Z,0.90
2018-12-25T13:34:35.257Z,0.30
2018-12-25T13:37:23.049Z,0.50
2018-12-25T13:40:10.625Z,0.50
2018-12-25T13:42:58.672Z,0.57
2018-12-25T13:45:46.630Z,0.40
2018-12-25T13:48:34.124Z,1.20
2018-12-25T13:51:21.544Z,0.70
2018-12-25T13:54:09.414Z,0.50
2018-12-25T13:56:56.998Z,0.53
2018-12-25T13:59:44.090Z,0.50
2018-12-25T14:02:34.729Z,0.60
2018-12-25T14:05:22.626Z,0.57
2018-12-25T14:08:10.500Z,0.50
2018-12-25T14:10:57.949Z,0.53
2018-12-25T14:13:45.207Z,0.60
2018-12-25T14:16:32.531Z,0.50
2018-12-25T14:19:20.189Z,0.53
2018-12-25T14:22:07.653Z,0.40
2018-12-25T14:24:58.746Z,0.40
2018-12-25T14:27:46.791Z,0.40
2018-12-25T14:30:34.702Z,0.50
2018-12-25T14:33:24.795Z,0.43
2018-12-25T14:36:12.436Z,0.50
2018-12-25T14:39:01.365Z,0.40
2018-12-25T14:41:53.350Z,0.33
2018-12-25T14:44:45.390Z,0.30
2018-12-25T14:47:33.047Z,0.30
2018-12-25T14:50:21.746Z,0.40
2018-12-25T14:53:09.409Z,0.50
2018-12-25T14:55:56.793Z,0.50
2018-12-25T14:58:44.930Z,0.50
2018-12-25T15:01:32.287Z,0.43
2018-12-25T15:04:20.715Z,0.60
2018-12-25T15:07:08.100Z,0.50
2018-12-25T15:09:55.683Z,0.57
2018-12-25T15:12:43.360Z,0.67
2018-12-25T15:15:34.377Z,2.07
2018-12-25T15:18:23.887Z,0.50
2018-12-25T15:21:11.391Z,0.60
2018-12-25T15:24:00.626Z,0.60
2018-12-25T15:26:49.274Z,0.50
2018-12-25T15:29:36.905Z,0.50
2018-12-25T15:32:25.277Z,0.50
2018-12-25T15:35:12.676Z,0.60
2018-12-25T15:38:03.134Z,0.50
2018-12-25T15:40:50.881Z,0.50
2018-12-25T15:43:38.435Z,0.40
2018-12-25T15:46:26.470Z,0.60
2018-12-25T15:49:15.818Z,0.70
2018-12-25T15:52:03.545Z,0.62
2018-12-25T15:54:51.010Z,0.50
2018-12-25T15:57:38.267Z,0.60
2018-12-25T16:00:26.147Z,0.47
2018-12-25T16:03:13.812Z,0.50
2018-12-25T16:06:09.927Z,0.60
2018-12-25T16:09:00.584Z,0.50
2018-12-25T16:11:50.169Z,0.70
2018-12-25T16:14:38.012Z,0.40
2018-12-25T16:17:26.579Z,0.50
2018-12-25T16:20:13.766Z,0.53
2018-12-25T16:23:01.433Z,0.60
2018-12-25T16:25:49.084Z,0.60
2018-12-25T16:28:37.069Z,1.00
2018-12-25T16:31:24.451Z,0.63
2018-12-25T16:34:16.407Z,0.70
2018-12-25T16:37:22.812Z,0.50
2018-12-25T16:40:02.835Z,0.60
2018-12-25T16:42:52.512Z,0.60
2018-12-25T16:45:40.006Z,0.50
2018-12-25T16:48:27.415Z,0.50
2018-12-25T16:51:15.296Z,3.43
2018-12-25T16:54:04.232Z,1.00
2018-12-25T16:56:51.946Z,0.80
2018-12-25T16:59:39.797Z,0.80
2018-12-25T17:02:27.621Z,0.37
2018-12-25T17:05:14.913Z,0.50
2018-12-25T17:08:04.004Z,0.77
2018-12-25T17:10:54.973Z,0.60
2018-12-25T17:13:42.610Z,0.40
2018-12-25T17:16:30.428Z,0.67
2018-12-25T17:19:17.702Z,0.60
2018-12-25T17:22:04.934Z,0.60
2018-12-25T17:24:52.630Z,0.57
2018-12-25T17:27:46.024Z,0.50
2018-12-25T17:30:33.357Z,0.50
2018-12-25T17:33:21.157Z,0.60
2018-12-25T17:36:08.775Z,0.33
2018-12-25T17:38:56.606Z,0.60
2018-12-25T17:41:44.558Z,0.40
2018-12-25T17:44:32.001Z,0.50
2018-12-25T17:47:19.799Z,0.43
2018-12-25T17:50:07.338Z,0.50
2018-12-25T17:52:54.489Z,0.40
2018-12-25T17:55:42.008Z,0.47
2018-12-25T17:58:29.679Z,0.40
2018-12-25T18:01:18.141Z,0.50
2018-12-25T18:04:06.084Z,0.33
2018-12-25T18:06:53.299Z,0.40
2018-12-25T18:09:40.437Z,0.40
2018-12-25T18:12:28.077Z,1.13
2018-12-25T18:15:15.331Z,0.30
2018-12-25T18:18:03.140Z,0.40
2018-12-25T18:20:50.612Z,0.30
2018-12-25T18:23:38.158Z,0.60
2018-12-25T18:26:25.275Z,0.40
2018-12-25T18:29:13.113Z,0.57
2018-12-25T18:32:01.033Z,0.57
2018-12-25T18:34:48.679Z,0.60
2018-12-25T18:37:36.617Z,0.53
2018-12-25T18:40:24.419Z,0.40
2018-12-25T18:43:12.430Z,0.30
2018-12-25T18:46:00.096Z,0.40
2018-12-25T18:48:47.388Z,0.50
2018-12-25T18:51:35.250Z,0.30
2018-12-25T18:54:27.707Z,0.60
2018-12-25T18:57:10.957Z,0.40
2018-12-25T18:59:58.686Z,0.40
2018-12-25T19:02:46.419Z,0.40
2018-12-25T19:05:34.314Z,0.30
2018-12-25T19:08:22.092Z,0.47
2018-12-25T19:11:09.829Z,0.50
2018-12-25T19:13:57.363Z,0.50
2018-12-25T19:16:45.836Z,0.40
2018-12-25T19:19:33.530Z,0.40
2018-12-25T19:22:21.293Z,0.50
2018-12-25T19:25:10.189Z,0.40
2018-12-25T19:27:57.632Z,0.40
2018-12-25T19:30:44.891Z,0.50
2018-12-25T19:33:32.372Z,0.70
2018-12-25T19:36:23.242Z,0.50
2018-12-25T19:39:10.614Z,0.50
2018-12-25T19:41:57.820Z,0.30
2018-12-25T19:44:45.363Z,0.50
2018-12-25T19:47:33.411Z,1.20
2018-12-25T19:50:20.568Z,0.70
2018-12-25T19:53:08.469Z,0.47
2018-12-25T19:55:56.860Z,0.60
2018-12-25T19:58:44.131Z,0.60
2018-12-25T20:01:31.167Z,0.50
2018-12-25T20:04:40.866Z,0.47
2018-12-25T20:08:02.481Z,0.60
2018-12-25T20:11:05.726Z,0.40
2018-12-25T20:14:21.613Z,0.60
2018-12-25T20:17:33.593Z,0.53
2018-12-25T20:20:58.920Z,0.30
2018-12-25T20:24:05.536Z,0.40
2018-12-25T20:27:21.850Z,0.40
2018-12-25T20:30:40.342Z,0.70
2018-12-25T20:33:45.691Z,0.40
2018-12-25T20:36:51.283Z,0.43
2018-12-25T20:39:56.820Z,0.93
2018-12-25T20:42:53.223Z,0.40
2018-12-25T20:46:14.849Z,0.30
2018-12-25T20:49:16.098Z,0.83
2018-12-25T20:52:13.706Z,0.50
2018-12-25T20:55:19.117Z,0.40
2018-12-25T20:58:14.616Z,0.50
2018-12-25T21:01:20.735Z,0.63
2018-12-25T21:04:33.689Z,0.60
2018-12-25T21:07:49.852Z,0.50
2018-12-25T21:10:55.138Z,0.70
2018-12-25T21:14:00.741Z,0.50
2018-12-25T21:17:06.111Z,0.43
2018-12-25T21:20:15.692Z,0.53
2018-12-25T21:23:28.313Z,0.60
2018-12-25T21:26:33.224Z,0.60
2018-12-25T21:29:20.917Z,0.67
2018-12-25T21:32:08.473Z,0.70
2018-12-25T21:35:00.814Z,0.70
2018-12-25T21:37:48.569Z,0.80
2018-12-25T21:40:37.010Z,0.73
2018-12-25T21:43:25.205Z,0.60
2018-12-25T21:46:12.587Z,0.63
2018-12-25T21:49:00.685Z,0.80
2018-12-25T21:51:47.858Z,0.70
2018-12-25T21:54:35.913Z,0.70
2018-12-25T21:57:23.278Z,0.80
2018-12-25T22:00:12.288Z,0.70
2018-12-25T22:03:00.676Z,1.10
2018-12-25T22:05:48.576Z,0.60
2018-12-25T22:08:36.467Z,0.70
2018-12-25T22:11:24.214Z,0.70
2018-12-25T22:14:12.072Z,0.77
2018-12-25T22:17:00.083Z,0.50
2018-12-25T22:19:47.502Z,0.73
2018-12-25T22:22:35.221Z,0.70
2018-12-25T22:25:27.036Z,0.40
2018-12-25T22:28:11.956Z,0.60
2018-12-25T22:30:59.081Z,0.60
2018-12-25T22:33:46.525Z,0.60
2018-12-25T22:36:34.326Z,0.60
2018-12-25T22:39:21.647Z,0.73
2018-12-25T22:42:09.333Z,0.50
2018-12-25T22:44:56.513Z,0.53
2018-12-25T22:47:44.077Z,0.60
2018-12-25T22:50:31.885Z,0.60
2018-12-25T22:53:19.559Z,0.67
2018-12-25T22:56:07.645Z,0.50
2018-12-25T22:58:55.574Z,0.50
2018-12-25T23:01:43.228Z,0.50
2018-12-25T23:04:30.439Z,0.57
2018-12-25T23:07:18.126Z,0.50
2018-12-25T23:10:06.987Z,1.00
2018-12-25T23:12:54.226Z,0.80
2018-12-25T23:15:41.814Z,0.70
2018-12-25T23:18:29.242Z,0.50
2018-12-25T23:21:16.915Z,0.40
2018-12-25T23:24:04.677Z,0.60
2018-12-25T23:26:52.502Z,0.50
2018-12-25T23:29:40.460Z,0.40
2018-12-25T23:32:27.716Z,0.60
2018-12-25T23:35:15.194Z,0.40
2018-12-25T23:38:03.058Z,0.50
2018-12-25T23:40:50.950Z,0.30
2018-12-25T23:43:41.039Z,0.30
2018-12-25T23:46:28.287Z,0.40
2018-12-25T23:49:15.709Z,0.40
2018-12-25T23:52:03.345Z,0.30
2018-12-25T23:54:51.218Z,0.30
2018-12-25T23:57:38.969Z,0.40
